createdAt,value
2019-03-05T00:02:13.633Z,48.61
2019-03-05T00:04:39.602Z,48.63
2019-03-05T00:07:05.649Z,48.50
2019-03-05T00:09:31.627Z,48.51
2019-03-05T00:11:57.637Z,48.59
2019-03-05T00:14:23.638Z,48.51
2019-03-05T00:16:50.680Z,48.64
2019-03-05T00:19:16.680Z,48.54
2019-03-05T00:21:42.651Z,48.50
2019-03-05T00:24:08.642Z,48.44
2019-03-05T00:26:34.617Z,48.52
2019-03-05T00:29:00.734Z,48.58
2019-03-05T00:31:26.846Z,48.56
2019-03-05T00:33:52.841Z,48.64
2019-03-05T00:36:18.920Z,48.78
2019-03-05T00:38:44.905Z,48.76
2019-03-05T00:41:10.885Z,48.93
2019-03-05T00:43:36.867Z,48.97
2019-03-05T00:46:03.948Z,48.90
2019-03-05T00:48:29.942Z,48.70
2019-03-05T00:50:55.938Z,48.66
2019-03-05T00:53:21.901Z,48.72
2019-03-05T00:55:49.811Z,48.60
2019-03-05T00:58:15.620Z,48.48
2019-03-05T01:00:41.616Z,48.44
2019-03-05T01:03:07.605Z,48.46
2019-03-05T01:05:33.624Z,48.34
2019-03-05T01:07:59.674Z,48.14
2019-03-05T01:10:25.705Z,48.18
2019-03-05T01:12:51.681Z,48.11
2019-03-05T01:15:17.674Z,48.02
2019-03-05T01:17:43.664Z,47.96
2019-03-05T01:20:09.656Z,48.02
2019-03-05T01:22:35.681Z,48.10
2019-03-05T01:25:01.655Z,48.02
2019-03-05T01:27:27.670Z,48.02
2019-03-05T01:29:53.688Z,47.95
2019-03-05T01:32:19.691Z,47.95
2019-03-05T01:34:45.661Z,48.02
2019-03-05T01:37:11.673Z,47.88
2019-03-05T01:39:37.992Z,47.93
2019-03-05T01:42:04.003Z,48.06
2019-03-05T01:44:29.992Z,47.84
2019-03-05T01:46:55.967Z,48.00
2019-03-05T01:49:21.997Z,48.06
2019-03-05T01:51:48.044Z,48.07
2019-03-05T01:54:14.028Z,47.92
2019-03-05T01:56:40.064Z,47.83
2019-03-05T01:59:06.063Z,47.89
2019-03-05T02:01:32.037Z,47.89
2019-03-05T02:03:58.016Z,48.03
2019-03-05T02:06:23.994Z,47.90
2019-03-05T02:08:49.967Z,47.87
2019-03-05T02:11:15.960Z,47.83
2019-03-05T02:13:41.976Z,47.96
2019-03-05T02:16:07.980Z,48.21
2019-03-05T02:18:33.983Z,48.25
2019-03-05T02:20:59.961Z,48.33
2019-03-05T02:23:25.951Z,48.13
2019-03-05T02:25:51.930Z,48.55
2019-03-05T02:28:17.900Z,48.69
2019-03-05T02:30:43.884Z,48.78
2019-03-05T02:33:09.869Z,48.88
2019-03-05T02:35:35.866Z,48.97
2019-03-05T02:38:05.501Z,49.03
2019-03-05T02:40:29.607Z,49.01
2019-03-05T02:42:55.684Z,49.04
2019-03-05T02:45:21.665Z,49.09
2019-03-05T02:47:47.656Z,49.10
2019-03-05T02:50:13.651Z,49.13
2019-03-05T02:52:39.637Z,48.93
2019-03-05T02:55:05.623Z,49.17
2019-03-05T02:57:31.660Z,49.21
2019-03-05T02:59:57.704Z,49.19
2019-03-05T03:02:24.858Z,49.20
2019-03-05T03:04:50.914Z,49.22
2019-03-05T03:07:16.927Z,49.25
2019-03-05T03:09:42.917Z,49.28
2019-03-05T03:12:08.896Z,49.18
2019-03-05T03:14:34.883Z,49.26
2019-03-05T03:17:00.861Z,49.25
2019-03-05T03:19:26.866Z,49.23
2019-03-05T03:21:52.882Z,49.22
2019-03-05T03:24:18.858Z,49.20
2019-03-05T03:26:44.861Z,49.22
2019-03-05T03:29:10.852Z,49.17
2019-03-05T03:31:36.853Z,49.22
2019-03-05T03:34:02.844Z,49.27
2019-03-05T03:36:29.880Z,49.22
2019-03-05T03:38:55.865Z,49.24
2019-03-05T03:41:21.886Z,49.23
2019-03-05T03:43:47.914Z,49.22
2019-03-05T03:46:13.885Z,49.21
2019-03-05T03:48:39.916Z,49.21
2019-03-05T03:51:05.972Z,49.19
2019-03-05T03:53:31.959Z,49.23
2019-03-05T03:55:57.948Z,49.26
2019-03-05T03:58:23.925Z,49.26
2019-03-05T04:00:49.936Z,49.20
2019-03-05T04:03:16.004Z,49.15
2019-03-05T04:05:41.983Z,49.16
2019-03-05T04:08:10.292Z,49.18
2019-03-05T04:10:35.671Z,49.21
2019-03-05T04:13:01.672Z,49.22
2019-03-05T04:15:27.655Z,49.24
2019-03-05T04:17:53.636Z,49.25
2019-03-05T04:20:19.712Z,49.30
2019-03-05T04:22:45.768Z,49.30
2019-03-05T04:25:11.823Z,49.32
2019-03-05T04:27:37.934Z,49.37
2019-03-05T04:30:03.992Z,49.38
2019-03-05T04:32:29.976Z,49.35
2019-03-05T04:34:55.970Z,49.38
2019-03-05T04:37:21.952Z,49.40
2019-03-05T04:39:47.955Z,49.41
2019-03-05T04:42:13.951Z,49.38
2019-03-05T04:44:39.920Z,49.42
2019-03-05T04:47:05.913Z,49.44
2019-03-05T04:49:31.957Z,49.43
2019-03-05T04:51:57.949Z,49.42
2019-03-05T04:54:23.931Z,49.41
2019-03-05T04:56:49.927Z,49.37
2019-03-05T04:59:15.909Z,49.30
2019-03-05T05:01:41.932Z,49.29
2019-03-05T05:04:07.918Z,49.27
2019-03-05T05:06:33.886Z,49.28
2019-03-05T05:08:59.900Z,49.26
2019-03-05T05:11:25.875Z,49.25
2019-03-05T05:13:51.951Z,49.25
2019-03-05T05:16:17.933Z,49.18
2019-03-05T05:18:43.914Z,49.12
2019-03-05T05:21:09.886Z,49.11
2019-03-05T05:23:35.875Z,48.90
2019-03-05T05:26:01.876Z,48.95
2019-03-05T05:28:27.857Z,49.00
2019-03-05T05:30:53.836Z,49.05
2019-03-05T05:33:19.855Z,48.92
2019-03-05T05:35:45.826Z,48.84
2019-03-05T05:38:11.836Z,48.88
2019-03-05T05:40:37.880Z,49.02
2019-03-05T05:43:03.872Z,48.99
2019-03-05T05:45:29.995Z,49.02
2019-03-05T05:47:55.968Z,49.01
2019-03-05T05:50:21.946Z,49.02
2019-03-05T05:52:47.919Z,49.04
2019-03-05T05:55:13.991Z,49.06
2019-03-05T05:57:39.964Z,49.05
2019-03-05T06:00:06.046Z,49.07
2019-03-05T06:02:32.065Z,49.12
2019-03-05T06:04:58.101Z,49.14
2019-03-05T06:07:24.152Z,49.14
2019-03-05T06:09:50.135Z,49.15
2019-03-05T06:12:16.127Z,49.14
2019-03-05T06:14:42.097Z,49.16
2019-03-05T06:17:08.098Z,49.22
2019-03-05T06:19:34.069Z,49.22
2019-03-05T06:22:00.168Z,49.22
2019-03-05T06:24:26.171Z,49.27
2019-03-05T06:26:52.147Z,49.27
2019-03-05T06:29:18.170Z,49.24
2019-03-05T06:31:44.157Z,49.23
2019-03-05T06:34:10.129Z,49.20
2019-03-05T06:36:36.224Z,48.95
2019-03-05T06:39:02.232Z,48.86
2019-03-05T06:41:28.236Z,48.86
2019-03-05T06:43:54.201Z,48.67
2019-03-05T06:46:20.180Z,48.27
2019-03-05T06:48:46.159Z,48.50
2019-03-05T06:51:12.142Z,48.24
2019-03-05T06:53:38.120Z,48.25
2019-03-05T06:56:04.124Z,48.15
2019-03-05T06:58:30.120Z,48.26
2019-03-05T07:00:56.112Z,48.24
2019-03-05T07:03:22.105Z,48.60
2019-03-05T07:05:48.099Z,49.18
2019-03-05T07:08:15.739Z,49.40
2019-03-05T07:10:42.743Z,49.49
2019-03-05T07:13:08.803Z,49.47
2019-03-05T07:15:34.785Z,49.45
2019-03-05T07:18:00.773Z,49.42
2019-03-05T07:20:26.765Z,49.46
2019-03-05T07:22:52.750Z,49.46
2019-03-05T07:25:18.747Z,49.53
2019-03-05T07:27:44.728Z,49.47
2019-03-05T07:30:10.743Z,49.51
2019-03-05T07:32:36.754Z,49.46
2019-03-05T07:35:02.748Z,49.43
2019-03-05T07:37:28.791Z,49.20
2019-03-05T07:39:54.868Z,49.45
2019-03-05T07:42:20.856Z,49.36
2019-03-05T07:44:46.840Z,49.26
2019-03-05T07:47:12.800Z,49.31
2019-03-05T07:49:43.786Z,49.45
2019-03-05T07:52:06.520Z,49.38
2019-03-05T07:54:32.515Z,49.61
2019-03-05T07:56:59.504Z,49.73
2019-03-05T07:59:25.493Z,49.79
2019-03-05T08:01:51.557Z,49.75
2019-03-05T08:04:17.542Z,49.89
2019-03-05T08:06:43.620Z,49.83
2019-03-05T08:09:09.603Z,49.73
2019-03-05T08:11:35.690Z,49.69
2019-03-05T08:14:01.676Z,49.71
2019-03-05T08:16:27.748Z,49.62
2019-03-05T08:18:53.724Z,50.02
2019-03-05T08:21:19.714Z,49.97
2019-03-05T08:23:48.269Z,49.93
2019-03-05T08:26:13.406Z,49.88
2019-03-05T08:28:39.436Z,49.86
2019-03-05T08:31:05.459Z,49.85
2019-03-05T08:33:31.458Z,49.79
2019-03-05T08:35:57.549Z,49.76
2019-03-05T08:38:23.664Z,49.83
2019-03-05T08:40:49.650Z,49.80
2019-03-05T08:43:15.649Z,49.78
2019-03-05T08:45:41.739Z,49.74
2019-03-05T08:48:07.720Z,49.84
2019-03-05T08:50:33.757Z,49.80
2019-03-05T08:52:59.741Z,49.66
2019-03-05T08:55:25.719Z,49.67
2019-03-05T08:57:51.696Z,49.52
2019-03-05T09:00:17.687Z,49.40
2019-03-05T09:02:48.669Z,49.41
2019-03-05T09:05:11.606Z,49.33
2019-03-05T09:07:37.597Z,49.27
2019-03-05T09:10:03.651Z,49.12
2019-03-05T09:12:29.693Z,49.02
2019-03-05T09:14:55.690Z,49.03
2019-03-05T09:17:21.739Z,49.05
2019-03-05T09:19:47.731Z,48.90
2019-03-05T09:22:13.799Z,49.06
2019-03-05T09:24:39.810Z,49.60
2019-03-05T09:27:05.807Z,49.67
2019-03-05T09:29:31.800Z,49.74
2019-03-05T09:31:57.792Z,49.24
2019-03-05T09:34:23.797Z,49.78
2019-03-05T09:36:51.242Z,50.01
2019-03-05T09:39:17.614Z,50.15
2019-03-05T09:41:43.615Z,50.18
2019-03-05T09:44:09.699Z,50.21
2019-03-05T09:46:35.745Z,50.16
2019-03-05T09:49:01.792Z,50.17
2019-03-05T09:51:27.824Z,50.16
2019-03-05T09:53:53.833Z,50.07
2019-03-05T09:56:19.887Z,50.03
2019-03-05T09:58:45.988Z,49.98
2019-03-05T10:01:12.986Z,49.91
2019-03-05T10:03:39.093Z,49.91
2019-03-05T10:06:05.168Z,49.97
2019-03-05T10:08:32.820Z,50.46
2019-03-05T10:10:59.040Z,49.88
2019-03-05T10:13:25.069Z,50.08
2019-03-05T10:15:53.405Z,49.95
2019-03-05T10:18:18.812Z,49.98
2019-03-05T10:20:44.805Z,49.93
2019-03-05T10:23:15.186Z,49.90
2019-03-05T10:25:43.409Z,49.95
2019-03-05T10:28:15.289Z,50.02
2019-03-05T10:30:41.296Z,50.02
2019-03-05T10:33:09.411Z,50.09
2019-03-05T10:35:38.698Z,50.15
2019-03-05T10:40:39.761Z,50.05
2019-03-05T10:45:37.365Z,49.94
2019-03-05T10:48:08.437Z,49.83
2019-03-05T10:50:36.485Z,49.87
2019-03-05T10:53:06.025Z,49.84
2019-03-05T10:55:49.122Z,49.80
2019-03-05T10:58:16.405Z,49.84
2019-03-05T11:05:46.248Z,49.73
2019-03-05T11:08:12.323Z,49.66
2019-03-05T11:10:41.025Z,49.60
2019-03-05T11:18:09.957Z,49.45
2019-03-05T11:25:46.111Z,49.21
2019-03-05T11:36:00.597Z,49.15
2019-03-05T11:38:26.693Z,49.12
2019-03-05T11:40:52.788Z,49.04
2019-03-05T11:43:18.924Z,49.09
2019-03-05T11:45:49.472Z,49.24
2019-03-05T11:48:15.723Z,48.92
2019-03-05T11:50:41.952Z,48.66
2019-03-05T11:53:08.124Z,48.55
2019-03-05T12:00:49.955Z,48.63
2019-03-05T12:03:16.236Z,48.93
2019-03-05T12:05:42.316Z,48.76
2019-03-05T12:08:08.611Z,48.67
2019-03-05T12:13:05.975Z,48.58
2019-03-05T12:15:32.227Z,48.58
2019-03-05T12:17:58.370Z,48.60
2019-03-05T12:20:24.517Z,48.56
2019-03-05T12:22:50.745Z,48.65
2019-03-05T12:35:40.893Z,49.05
2019-03-05T12:38:10.826Z,49.03
2019-03-05T12:40:36.911Z,48.98
2019-03-05T12:45:34.344Z,48.92
2019-03-05T12:48:00.681Z,48.81
2019-03-05T12:50:26.845Z,48.88
2019-03-05T12:52:53.125Z,48.83
2019-03-05T13:00:34.344Z,48.73
2019-03-05T13:03:00.562Z,48.52
2019-03-05T13:10:34.868Z,48.58
2019-03-05T13:12:58.058Z,48.68
2019-03-05T13:18:07.970Z,48.66
2019-03-05T13:20:34.148Z,48.63
2019-03-05T13:23:00.351Z,48.83
2019-03-05T13:25:28.657Z,48.86
2019-03-05T13:28:10.511Z,48.78
2019-03-05T13:30:36.740Z,48.79
2019-03-05T13:33:02.979Z,48.88
2019-03-05T13:35:30.470Z,49.00
2019-03-05T13:37:58.700Z,49.00
2019-03-05T13:40:24.937Z,49.00
2019-03-05T13:42:51.161Z,49.26
2019-03-05T13:45:24.467Z,49.52
2019-03-05T13:47:50.667Z,49.55
2019-03-05T13:50:16.861Z,49.58
2019-03-05T13:52:43.078Z,49.56
2019-03-05T13:55:09.329Z,49.63
2019-03-05T13:57:35.586Z,49.62
2019-03-05T14:02:39.413Z,49.54
2019-03-05T14:05:10.680Z,49.50
2019-03-05T14:12:51.259Z,49.48
2019-03-05T14:18:03.315Z,49.46
2019-03-05T14:20:31.899Z,49.41
2019-03-05T14:22:57.528Z,49.38
2019-03-05T14:25:23.757Z,49.30
2019-03-05T14:27:49.994Z,49.04
2019-03-05T14:30:16.175Z,49.17
2019-03-05T14:32:42.464Z,49.17
2019-03-05T14:35:08.761Z,48.94
2019-03-05T14:37:34.964Z,48.96
2019-03-05T14:40:22.804Z,48.79
2019-03-05T14:42:31.091Z,48.86
2019-03-05T14:44:57.410Z,48.98
2019-03-05T14:47:23.594Z,48.72
2019-03-05T14:54:53.390Z,49.35
2019-03-05T14:57:26.920Z,49.39
2019-03-05T15:02:25.217Z,49.40
2019-03-05T15:07:35.334Z,49.47
2019-03-05T15:10:01.561Z,49.44
2019-03-05T15:12:28.013Z,49.38
2019-03-05T15:19:59.768Z,49.36
2019-03-05T15:25:10.248Z,49.36
2019-03-05T15:27:44.617Z,49.23
2019-03-05T15:30:10.794Z,49.30
2019-03-05T15:32:37.253Z,49.25
2019-03-05T15:35:03.405Z,49.13
2019-03-05T15:37:29.579Z,49.16
2019-03-05T15:39:55.772Z,49.46
2019-03-05T15:44:53.103Z,49.63
2019-03-05T15:47:19.197Z,49.85
2019-03-05T15:49:45.356Z,50.06
2019-03-05T15:52:12.834Z,49.91
2019-03-05T15:54:38.999Z,50.04
2019-03-05T15:57:06.007Z,49.81
2019-03-05T15:59:34.404Z,49.61
2019-03-05T16:02:01.464Z,49.40
2019-03-05T16:04:27.598Z,49.34
2019-03-05T16:06:53.708Z,49.26
2019-03-05T16:09:19.896Z,49.21
2019-03-05T16:11:46.061Z,49.15
2019-03-05T16:14:12.262Z,49.21
2019-03-05T16:16:38.443Z,49.13
2019-03-05T16:19:04.609Z,49.09
2019-03-05T16:21:30.812Z,49.01
2019-03-05T16:23:57.023Z,49.03
2019-03-05T16:26:24.681Z,49.00
2019-03-05T16:28:51.034Z,48.98
2019-03-05T16:31:17.198Z,48.91
2019-03-05T16:33:45.632Z,49.20
2019-03-05T16:36:12.928Z,49.39
2019-03-05T16:38:39.098Z,49.44
2019-03-05T16:41:07.521Z,49.43
2019-03-05T16:43:33.735Z,49.44
2019-03-05T16:45:59.906Z,49.45
2019-03-05T16:48:26.053Z,49.50
2019-03-05T16:50:52.171Z,49.51
2019-03-05T16:53:18.369Z,49.52
2019-03-05T16:55:44.523Z,49.45
2019-03-05T16:58:10.691Z,49.49
2019-03-05T17:00:36.919Z,49.54
2019-03-05T17:03:03.152Z,49.56
2019-03-05T17:05:29.412Z,49.57
2019-03-05T17:07:55.527Z,49.57
2019-03-05T17:10:21.853Z,49.60
2019-03-05T17:12:48.041Z,49.57
2019-03-05T17:15:14.433Z,49.48
2019-03-05T17:17:40.621Z,49.45
2019-03-05T17:20:06.763Z,49.42
2019-03-05T17:22:33.026Z,49.46
2019-03-05T17:24:59.259Z,49.49
2019-03-05T17:27:25.433Z,49.50
2019-03-05T17:29:52.170Z,49.46
2019-03-05T17:32:18.380Z,49.58
2019-03-05T17:34:44.703Z,49.74
2019-03-05T17:37:10.883Z,49.73
2019-03-05T17:39:37.156Z,49.80
2019-03-05T17:42:03.484Z,49.82
2019-03-05T17:44:29.884Z,49.84
2019-03-05T17:46:56.086Z,49.88
2019-03-05T17:49:22.258Z,49.94
2019-03-05T17:51:48.568Z,49.89
2019-03-05T17:54:14.735Z,49.92
2019-03-05T17:56:41.967Z,50.00
2019-03-05T17:59:08.258Z,50.01
2019-03-05T18:01:34.586Z,50.03
2019-03-05T18:04:00.776Z,50.03
2019-03-05T18:06:26.923Z,49.98
2019-03-05T18:08:53.145Z,49.96
2019-03-05T18:11:19.316Z,49.93
2019-03-05T18:13:45.807Z,49.77
2019-03-05T18:16:12.063Z,49.74
2019-03-05T18:18:38.245Z,49.74
2019-03-05T18:21:04.490Z,49.57
2019-03-05T18:23:30.596Z,49.59
2019-03-05T18:25:56.782Z,49.48
2019-03-05T18:28:23.280Z,49.39
2019-03-05T18:30:49.544Z,49.37
2019-03-05T18:33:15.873Z,49.32
2019-03-05T18:35:42.025Z,49.22
2019-03-05T18:38:08.243Z,49.09
2019-03-05T18:40:34.486Z,49.02
2019-03-05T18:43:00.945Z,49.19
2019-03-05T18:45:28.199Z,49.22
2019-03-05T18:47:54.571Z,49.21
2019-03-05T18:50:20.798Z,49.14
2019-03-05T18:52:46.984Z,49.23
2019-03-05T18:55:13.237Z,49.22
2019-03-05T18:57:39.387Z,49.11
2019-03-05T19:00:05.582Z,49.00
2019-03-05T19:02:31.780Z,49.03
2019-03-05T19:04:57.995Z,49.15
2019-03-05T19:07:24.251Z,49.08
2019-03-05T19:09:50.459Z,48.99
2019-03-05T19:12:16.740Z,49.04
2019-03-05T19:14:42.916Z,49.07
2019-03-05T19:17:09.274Z,49.01
2019-03-05T19:19:35.469Z,49.00
2019-03-05T19:22:01.720Z,48.84
2019-03-05T19:24:28.942Z,48.82
2019-03-05T19:26:55.235Z,48.82
2019-03-05T19:29:21.418Z,49.02
2019-03-05T19:31:47.617Z,48.89
2019-03-05T19:34:13.830Z,48.87
2019-03-05T19:36:39.999Z,48.95
2019-03-05T19:39:06.189Z,48.96
2019-03-05T19:41:32.412Z,49.01
2019-03-05T19:43:58.746Z,49.12
2019-03-05T19:46:25.025Z,49.20
2019-03-05T19:48:51.222Z,49.49
2019-03-05T19:51:17.361Z,49.58
2019-03-05T19:53:43.598Z,49.61
2019-03-05T19:56:09.785Z,49.65
2019-03-05T19:58:36.061Z,49.73
2019-03-05T20:01:02.285Z,49.82
2019-03-05T20:03:28.449Z,49.81
2019-03-05T20:05:54.687Z,49.86
2019-03-05T20:08:20.891Z,49.90
2019-03-05T20:10:47.125Z,49.89
2019-03-05T20:13:13.486Z,49.87
2019-03-05T20:15:41.143Z,49.91
2019-03-05T20:18:07.591Z,49.84
2019-03-05T20:20:33.741Z,49.82
2019-03-05T20:22:59.971Z,49.82
2019-03-05T20:25:26.224Z,49.66
2019-03-05T20:27:52.890Z,49.58
2019-03-05T20:30:19.079Z,49.48
2019-03-05T20:32:45.224Z,49.35
2019-03-05T20:35:11.421Z,49.32
2019-03-05T20:37:38.706Z,49.27
2019-03-05T20:40:04.847Z,49.20
2019-03-05T20:42:31.292Z,49.23
2019-03-05T20:44:57.393Z,49.65
2019-03-05T20:47:23.534Z,49.76
2019-03-05T20:49:49.716Z,49.89
2019-03-05T20:52:15.800Z,49.97
2019-03-05T20:54:41.922Z,50.01
2019-03-05T20:57:07.982Z,50.02
2019-03-05T20:59:34.388Z,49.69
2019-03-05T21:02:00.461Z,49.46
2019-03-05T21:04:26.467Z,49.38
2019-03-05T21:06:52.486Z,49.36
2019-03-05T21:09:18.482Z,49.38
2019-03-05T21:11:44.594Z,49.39
2019-03-05T21:14:10.618Z,49.35
2019-03-05T21:16:37.556Z,49.28
2019-03-05T21:19:03.614Z,49.21
2019-03-05T21:21:29.699Z,49.36
2019-03-05T21:23:55.747Z,49.37
2019-03-05T21:26:21.902Z,49.44
2019-03-05T21:28:47.954Z,49.40
2019-03-05T21:31:14.314Z,49.40
2019-03-05T21:33:40.348Z,49.37
2019-03-05T21:36:07.044Z,49.48
2019-03-05T21:38:33.030Z,49.52
2019-03-05T21:41:00.164Z,49.49
2019-03-05T21:43:26.307Z,49.57
2019-03-05T21:45:52.302Z,49.52
2019-03-05T21:48:18.371Z,49.73
2019-03-05T21:50:44.508Z,49.61
2019-03-05T21:53:10.640Z,49.65
2019-03-05T21:55:36.687Z,49.73
2019-03-05T21:58:02.751Z,49.73
2019-03-05T22:00:28.787Z,49.75
2019-03-05T22:02:54.825Z,49.76
2019-03-05T22:05:20.817Z,49.67
2019-03-05T22:07:48.806Z,49.84
2019-03-05T22:10:15.161Z,49.70
2019-03-05T22:12:41.223Z,49.77
2019-03-05T22:15:07.227Z,49.74
2019-03-05T22:17:33.312Z,49.61
2019-03-05T22:19:59.386Z,49.83
2019-03-05T22:22:25.401Z,49.69
2019-03-05T22:24:51.421Z,49.69
2019-03-05T22:27:17.507Z,49.71
2019-03-05T22:29:43.838Z,49.93
2019-03-05T22:32:10.692Z,49.76
2019-03-05T22:34:36.685Z,49.85
2019-03-05T22:37:02.722Z,49.99
2019-03-05T22:39:28.754Z,49.84
2019-03-05T22:41:54.795Z,49.85
2019-03-05T22:44:21.209Z,50.03
2019-03-05T22:46:47.228Z,50.06
2019-03-05T22:49:13.222Z,49.99
2019-03-05T22:51:39.327Z,50.04
2019-03-05T22:54:05.636Z,50.06
2019-03-05T22:56:31.842Z,50.05
2019-03-05T22:58:57.874Z,50.08
2019-03-05T23:01:23.894Z,50.05
2019-03-05T23:03:49.972Z,50.02
2019-03-05T23:06:17.070Z,50.00
2019-03-05T23:08:43.092Z,50.17
2019-03-05T23:11:09.185Z,50.15
2019-03-05T23:13:35.295Z,50.04
2019-03-05T23:16:01.398Z,50.17
2019-03-05T23:18:27.540Z,50.19
2019-03-05T23:20:53.537Z,50.15
2019-03-05T23:23:19.722Z,50.14
2019-03-05T23:25:46.224Z,50.63
2019-03-05T23:28:12.332Z,50.37
2019-03-05T23:30:38.727Z,50.08
2019-03-05T23:33:06.020Z,50.13
2019-03-05T23:35:32.084Z,50.14
2019-03-05T23:37:58.323Z,50.20
2019-03-05T23:40:25.136Z,50.28
2019-03-05T23:42:51.142Z,50.16
2019-03-05T23:45:17.718Z,50.21
2019-03-05T23:47:47.122Z,50.24
2019-03-05T23:50:13.220Z,50.30
2019-03-05T23:52:39.350Z,50.33
2019-03-05T23:55:05.379Z,50.33
2019-03-05T23:57:31.465Z,50.29
2019-03-05T23:59:58.482Z,50.28
